sensor_id;sensor_type;location;lat;lon;timestamp;temperature;humidity
13322;DHT22;6730;46.248;6.930;2024-02-15T00:00:04;8.90;99.60
13322;DHT22;6730;46.248;6.930;2024-02-15T00:02:33;8.80;99.50
13322;DHT22;6730;46.248;6.930;2024-02-15T00:04:58;8.80;99.60
13322;DHT22;6730;46.248;6.930;2024-02-15T00:07:24;8.80;99.40
13322;DHT22;6730;46.248;6.930;2024-02-15T00:09:51;8.80;99.30
13322;DHT22;6730;46.248;6.930;2024-02-15T00:12:19;8.70;99.40
13322;DHT22;6730;46.248;6.930;2024-02-15T00:14:44;8.60;99.60
13322;DHT22;6730;46.248;6.930;2024-02-15T00:17:10;8.50;99.80
13322;DHT22;6730;46.248;6.930;2024-02-15T00:19:37;8.50;99.80
13322;DHT22;6730;46.248;6.930;2024-02-15T00:22:05;8.50;99.90
13322;DHT22;6730;46.248;6.930;2024-02-15T00:24:31;8.50;99.90
13322;DHT22;6730;46.248;6.930;2024-02-15T00:26:57;8.40;99.90
13322;DHT22;6730;46.248;6.930;2024-02-15T00:29:23;8.30;99.90
13322;DHT22;6730;46.248;6.930;2024-02-15T00:31:50;8.40;99.90
13322;DHT22;6730;46.248;6.930;2024-02-15T00:34:16;8.40;99.90
13322;DHT22;6730;46.248;6.930;2024-02-15T00:36:47;8.40;99.90
13322;DHT22;6730;46.248;6.930;2024-02-15T00:39:12;8.40;99.90
13322;DHT22;6730;46.248;6.930;2024-02-15T00:41:39;8.40;99.90
13322;DHT22;6730;46.248;6.930;2024-02-15T00:44:09;8.50;99.90
13322;DHT22;6730;46.248;6.930;2024-02-15T00:46:36;8.60;99.90
13322;DHT22;6730;46.248;6.930;2024-02-15T00:49:02;8.60;99.90
13322;DHT22;6730;46.248;6.930;2024-02-15T00:51:29;8.80;99.70
13322;DHT22;6730;46.248;6.930;2024-02-15T00:53:57;9.10;99.30
13322;DHT22;6730;46.248;6.930;2024-02-15T00:56:23;9.00;99.20
13322;DHT22;6730;46.248;6.930;2024-02-15T00:58:49;8.90;99.30
13322;DHT22;6730;46.248;6.930;2024-02-15T01:01:15;8.80;99.50
13322;DHT22;6730;46.248;6.930;2024-02-15T01:03:44;8.60;99.80
13322;DHT22;6730;46.248;6.930;2024-02-15T01:06:09;8.50;99.90
13322;DHT22;6730;46.248;6.930;2024-02-15T01:08:35;8.40;99.90
13322;DHT22;6730;46.248;6.930;2024-02-15T01:11:02;8.40;99.90
13322;DHT22;6730;46.248;6.930;2024-02-15T01:13:28;8.30;99.90
13322;DHT22;6730;46.248;6.930;2024-02-15T01:15:53;8.40;99.90
13322;DHT22;6730;46.248;6.930;2024-02-15T01:18:19;8.40;99.90
13322;DHT22;6730;46.248;6.930;2024-02-15T01:20:45;8.40;99.90
13322;DHT22;6730;46.248;6.930;2024-02-15T01:23:11;8.40;99.90
13322;DHT22;6730;46.248;6.930;2024-02-15T01:25:36;8.30;99.90
13322;DHT22;6730;46.248;6.930;2024-02-15T01:28:03;8.30;99.90
13322;DHT22;6730;46.248;6.930;2024-02-15T01:30:29;8.20;99.90
13322;DHT22;6730;46.248;6.930;2024-02-15T01:32:55;8.10;99.90
13322;DHT22;6730;46.248;6.930;2024-02-15T01:35:21;8.00;99.90
13322;DHT22;6730;46.248;6.930;2024-02-15T01:37:47;8.00;99.90
13322;DHT22;6730;46.248;6.930;2024-02-15T01:40:12;8.00;99.90
13322;DHT22;6730;46.248;6.930;2024-02-15T01:42:38;8.00;99.90
13322;DHT22;6730;46.248;6.930;2024-02-15T01:45:05;8.00;99.90
13322;DHT22;6730;46.248;6.930;2024-02-15T01:47:31;8.10;99.90
13322;DHT22;6730;46.248;6.930;2024-02-15T01:49:59;8.20;99.90
13322;DHT22;6730;46.248;6.930;2024-02-15T01:52:24;8.20;99.90
13322;DHT22;6730;46.248;6.930;2024-02-15T01:54:52;8.10;99.90
13322;DHT22;6730;46.248;6.930;2024-02-15T01:57:20;8.00;99.90
13322;DHT22;6730;46.248;6.930;2024-02-15T01:59:53;8.10;99.90
13322;DHT22;6730;46.248;6.930;2024-02-15T02:02:20;8.20;99.90
13322;DHT22;6730;46.248;6.930;2024-02-15T02:04:48;8.00;99.90
13322;DHT22;6730;46.248;6.930;2024-02-15T02:07:13;7.90;99.90
13322;DHT22;6730;46.248;6.930;2024-02-15T02:09:40;8.00;99.90
13322;DHT22;6730;46.248;6.930;2024-02-15T02:12:05;8.10;99.90
13322;DHT22;6730;46.248;6.930;2024-02-15T02:14:32;8.20;99.90
13322;DHT22;6730;46.248;6.930;2024-02-15T02:17:14;8.00;99.90
13322;DHT22;6730;46.248;6.930;2024-02-15T02:19:40;7.80;99.90
13322;DHT22;6730;46.248;6.930;2024-02-15T02:22:07;7.70;99.90
13322;DHT22;6730;46.248;6.930;2024-02-15T02:25:00;7.70;99.90
13322;DHT22;6730;46.248;6.930;2024-02-15T02:27:26;7.90;99.90
13322;DHT22;6730;46.248;6.930;2024-02-15T02:29:53;8.00;99.90
13322;DHT22;6730;46.248;6.930;2024-02-15T02:32:19;8.10;99.90
13322;DHT22;6730;46.248;6.930;2024-02-15T02:34:44;8.10;99.90
13322;DHT22;6730;46.248;6.930;2024-02-15T02:37:10;8.10;99.90
13322;DHT22;6730;46.248;6.930;2024-02-15T02:39:39;8.30;99.90
13322;DHT22;6730;46.248;6.930;2024-02-15T02:42:04;8.40;99.60
13322;DHT22;6730;46.248;6.930;2024-02-15T02:44:30;8.50;99.40
13322;DHT22;6730;46.248;6.930;2024-02-15T02:46:56;8.70;99.30
13322;DHT22;6730;46.248;6.930;2024-02-15T02:49:22;8.80;99.00
13322;DHT22;6730;46.248;6.930;2024-02-15T02:51:48;8.70;99.20
13322;DHT22;6730;46.248;6.930;2024-02-15T02:54:13;8.40;99.60
13322;DHT22;6730;46.248;6.930;2024-02-15T02:56:40;8.20;99.90
13322;DHT22;6730;46.248;6.930;2024-02-15T02:59:07;8.00;99.90
13322;DHT22;6730;46.248;6.930;2024-02-15T03:01:33;7.90;99.90
13322;DHT22;6730;46.248;6.930;2024-02-15T03:03:59;7.80;99.90
13322;DHT22;6730;46.248;6.930;2024-02-15T03:06:24;7.90;99.90
13322;DHT22;6730;46.248;6.930;2024-02-15T03:08:50;8.00;99.90
13322;DHT22;6730;46.248;6.930;2024-02-15T03:11:23;8.20;99.60
13322;DHT22;6730;46.248;6.930;2024-02-15T03:13:48;8.40;99.40
13322;DHT22;6730;46.248;6.930;2024-02-15T03:16:14;8.60;99.20
13322;DHT22;6730;46.248;6.930;2024-02-15T03:18:40;8.50;99.10
13322;DHT22;6730;46.248;6.930;2024-02-15T03:21:07;8.30;99.50
13322;DHT22;6730;46.248;6.930;2024-02-15T03:23:36;8.20;99.60
13322;DHT22;6730;46.248;6.930;2024-02-15T03:26:02;8.20;99.50
13322;DHT22;6730;46.248;6.930;2024-02-15T03:28:29;8.20;99.50
13322;DHT22;6730;46.248;6.930;2024-02-15T03:30:55;8.00;99.40
13322;DHT22;6730;46.248;6.930;2024-02-15T03:33:21;8.10;98.50
13322;DHT22;6730;46.248;6.930;2024-02-15T03:35:52;8.10;99.30
13322;DHT22;6730;46.248;6.930;2024-02-15T03:38:18;8.20;99.00
13322;DHT22;6730;46.248;6.930;2024-02-15T03:40:46;8.30;99.10
13322;DHT22;6730;46.248;6.930;2024-02-15T03:43:12;8.50;99.20
13322;DHT22;6730;46.248;6.930;2024-02-15T03:45:38;8.30;99.30
13322;DHT22;6730;46.248;6.930;2024-02-15T03:48:04;8.20;99.90
13322;DHT22;6730;46.248;6.930;2024-02-15T03:50:30;8.10;99.80
13322;DHT22;6730;46.248;6.930;2024-02-15T03:52:58;8.00;99.80
13322;DHT22;6730;46.248;6.930;2024-02-15T03:55:25;8.10;99.70
13322;DHT22;6730;46.248;6.930;2024-02-15T03:57:51;8.20;99.20
13322;DHT22;6730;46.248;6.930;2024-02-15T04:00:17;8.20;99.10
13322;DHT22;6730;46.248;6.930;2024-02-15T04:02:46;8.20;99.30
13322;DHT22;6730;46.248;6.930;2024-02-15T04:05:14;8.20;99.20
13322;DHT22;6730;46.248;6.930;2024-02-15T04:07:40;8.00;99.40
13322;DHT22;6730;46.248;6.930;2024-02-15T04:10:06;7.90;99.30
13322;DHT22;6730;46.248;6.930;2024-02-15T04:12:32;7.90;99.50
13322;DHT22;6730;46.248;6.930;2024-02-15T04:14:58;7.90;99.50
13322;DHT22;6730;46.248;6.930;2024-02-15T04:17:39;8.20;99.30
13322;DHT22;6730;46.248;6.930;2024-02-15T04:20:06;8.30;99.10
13322;DHT22;6730;46.248;6.930;2024-02-15T04:22:35;8.60;98.80
13322;DHT22;6730;46.248;6.930;2024-02-15T04:25:07;8.50;98.80
13322;DHT22;6730;46.248;6.930;2024-02-15T04:27:35;8.20;98.90
13322;DHT22;6730;46.248;6.930;2024-02-15T04:30:02;8.00;99.10
13322;DHT22;6730;46.248;6.930;2024-02-15T04:32:28;7.80;99.00
13322;DHT22;6730;46.248;6.930;2024-02-15T04:34:55;7.70;99.20
13322;DHT22;6730;46.248;6.930;2024-02-15T04:37:20;7.60;99.30
13322;DHT22;6730;46.248;6.930;2024-02-15T04:39:46;7.60;99.20
13322;DHT22;6730;46.248;6.930;2024-02-15T04:42:13;7.70;99.10
13322;DHT22;6730;46.248;6.930;2024-02-15T04:44:39;7.80;99.10
13322;DHT22;6730;46.248;6.930;2024-02-15T04:47:05;7.90;98.80
13322;DHT22;6730;46.248;6.930;2024-02-15T04:49:32;8.10;98.70
13322;DHT22;6730;46.248;6.930;2024-02-15T04:51:57;8.30;98.50
13322;DHT22;6730;46.248;6.930;2024-02-15T04:54:23;8.40;98.30
13322;DHT22;6730;46.248;6.930;2024-02-15T04:56:49;8.30;98.20
13322;DHT22;6730;46.248;6.930;2024-02-15T04:59:19;8.10;98.70
13322;DHT22;6730;46.248;6.930;2024-02-15T05:01:47;7.90;98.90
13322;DHT22;6730;46.248;6.930;2024-02-15T05:04:12;7.90;99.00
13322;DHT22;6730;46.248;6.930;2024-02-15T05:06:39;8.20;98.70
13322;DHT22;6730;46.248;6.930;2024-02-15T05:09:06;8.30;98.40
13322;DHT22;6730;46.248;6.930;2024-02-15T05:11:37;8.10;98.60
13322;DHT22;6730;46.248;6.930;2024-02-15T05:14:03;8.10;98.80
13322;DHT22;6730;46.248;6.930;2024-02-15T05:16:35;7.90;98.80
13322;DHT22;6730;46.248;6.930;2024-02-15T05:19:10;7.90;99.00
13322;DHT22;6730;46.248;6.930;2024-02-15T05:21:37;7.70;99.20
13322;DHT22;6730;46.248;6.930;2024-02-15T05:24:04;7.60;99.60
13322;DHT22;6730;46.248;6.930;2024-02-15T05:26:29;7.40;99.70
13322;DHT22;6730;46.248;6.930;2024-02-15T05:28:55;7.30;99.90
13322;DHT22;6730;46.248;6.930;2024-02-15T05:31:21;7.20;99.90
13322;DHT22;6730;46.248;6.930;2024-02-15T05:33:51;7.30;99.90
13322;DHT22;6730;46.248;6.930;2024-02-15T05:36:18;7.50;99.70
13322;DHT22;6730;46.248;6.930;2024-02-15T05:38:49;7.70;99.50
13322;DHT22;6730;46.248;6.930;2024-02-15T05:41:15;7.60;99.50
13322;DHT22;6730;46.248;6.930;2024-02-15T05:43:41;7.50;99.40
13322;DHT22;6730;46.248;6.930;2024-02-15T05:46:08;7.50;99.50
13322;DHT22;6730;46.248;6.930;2024-02-15T05:48:35;7.60;99.50
13322;DHT22;6730;46.248;6.930;2024-02-15T05:51:02;7.40;99.60
13322;DHT22;6730;46.248;6.930;2024-02-15T05:53:28;7.40;99.70
13322;DHT22;6730;46.248;6.930;2024-02-15T05:55:55;7.40;99.60
13322;DHT22;6730;46.248;6.930;2024-02-15T05:58:20;7.40;99.60
13322;DHT22;6730;46.248;6.930;2024-02-15T06:00:46;7.60;99.40
13322;DHT22;6730;46.248;6.930;2024-02-15T06:03:19;7.70;99.10
13322;DHT22;6730;46.248;6.930;2024-02-15T06:05:47;7.70;99.00
13322;DHT22;6730;46.248;6.930;2024-02-15T06:08:13;7.70;98.40
13322;DHT22;6730;46.248;6.930;2024-02-15T06:10:39;7.90;98.70
13322;DHT22;6730;46.248;6.930;2024-02-15T06:13:08;8.10;98.50
13322;DHT22;6730;46.248;6.930;2024-02-15T06:15:36;8.20;98.40
13322;DHT22;6730;46.248;6.930;2024-02-15T06:18:02;8.00;98.40
13322;DHT22;6730;46.248;6.930;2024-02-15T06:20:34;7.80;98.60
13322;DHT22;6730;46.248;6.930;2024-02-15T06:23:01;8.00;98.60
13322;DHT22;6730;46.248;6.930;2024-02-15T06:25:31;8.10;98.30
13322;DHT22;6730;46.248;6.930;2024-02-15T06:27:57;8.00;98.40
13322;DHT22;6730;46.248;6.930;2024-02-15T06:30:28;8.10;98.40
13322;DHT22;6730;46.248;6.930;2024-02-15T06:33:12;8.10;98.40
13322;DHT22;6730;46.248;6.930;2024-02-15T06:35:56;8.10;98.40
13322;DHT22;6730;46.248;6.930;2024-02-15T06:38:40;8.00;98.50
13322;DHT22;6730;46.248;6.930;2024-02-15T06:41:24;7.90;98.60
13322;DHT22;6730;46.248;6.930;2024-02-15T06:43:50;7.90;98.90
13322;DHT22;6730;46.248;6.930;2024-02-15T06:46:16;7.90;99.30
13322;DHT22;6730;46.248;6.930;2024-02-15T06:48:42;8.00;99.10
13322;DHT22;6730;46.248;6.930;2024-02-15T06:51:13;7.90;99.00
13322;DHT22;6730;46.248;6.930;2024-02-15T06:53:40;8.10;99.00
13322;DHT22;6730;46.248;6.930;2024-02-15T06:56:09;8.30;98.50
13322;DHT22;6730;46.248;6.930;2024-02-15T06:58:35;8.40;98.40
13322;DHT22;6730;46.248;6.930;2024-02-15T07:01:01;8.40;98.40
13322;DHT22;6730;46.248;6.930;2024-02-15T07:03:28;8.40;98.40
13322;DHT22;6730;46.248;6.930;2024-02-15T07:05:55;8.30;98.60
13322;DHT22;6730;46.248;6.930;2024-02-15T07:08:21;8.20;98.60
13322;DHT22;6730;46.248;6.930;2024-02-15T07:10:50;8.20;98.70
13322;DHT22;6730;46.248;6.930;2024-02-15T07:13:17;8.30;98.50
13322;DHT22;6730;46.248;6.930;2024-02-15T07:15:43;8.30;98.30
13322;DHT22;6730;46.248;6.930;2024-02-15T07:18:10;8.30;98.20
13322;DHT22;6730;46.248;6.930;2024-02-15T07:20:37;8.50;97.10
13322;DHT22;6730;46.248;6.930;2024-02-15T07:23:03;8.70;97.40
13322;DHT22;6730;46.248;6.930;2024-02-15T07:25:31;8.80;97.70
13322;DHT22;6730;46.248;6.930;2024-02-15T07:27:56;8.80;97.80
13322;DHT22;6730;46.248;6.930;2024-02-15T07:30:22;8.90;97.60
13322;DHT22;6730;46.248;6.930;2024-02-15T07:32:49;9.00;97.50
13322;DHT22;6730;46.248;6.930;2024-02-15T07:35:15;9.10;97.30
13322;DHT22;6730;46.248;6.930;2024-02-15T07:37:54;9.20;97.50
13322;DHT22;6730;46.248;6.930;2024-02-15T07:40:21;9.20;97.70
13322;DHT22;6730;46.248;6.930;2024-02-15T07:42:48;9.20;97.70
13322;DHT22;6730;46.248;6.930;2024-02-15T07:45:14;9.20;97.50
13322;DHT22;6730;46.248;6.930;2024-02-15T07:47:40;9.30;97.50
13322;DHT22;6730;46.248;6.930;2024-02-15T07:50:06;9.60;96.90
13322;DHT22;6730;46.248;6.930;2024-02-15T07:52:35;9.50;97.10
13322;DHT22;6730;46.248;6.930;2024-02-15T07:55:01;9.50;98.00
13322;DHT22;6730;46.248;6.930;2024-02-15T07:57:34;9.40;97.80
13322;DHT22;6730;46.248;6.930;2024-02-15T08:00:00;9.50;97.90
13322;DHT22;6730;46.248;6.930;2024-02-15T08:02:25;9.70;97.90
13322;DHT22;6730;46.248;6.930;2024-02-15T08:04:54;9.90;98.70
13322;DHT22;6730;46.248;6.930;2024-02-15T08:07:20;9.90;98.60
13322;DHT22;6730;46.248;6.930;2024-02-15T08:09:46;10.10;98.10
13322;DHT22;6730;46.248;6.930;2024-02-15T08:12:16;10.30;97.50
13322;DHT22;6730;46.248;6.930;2024-02-15T08:14:42;10.40;97.80
13322;DHT22;6730;46.248;6.930;2024-02-15T08:17:08;10.70;98.70
13322;DHT22;6730;46.248;6.930;2024-02-15T08:19:34;11.30;96.80
13322;DHT22;6730;46.248;6.930;2024-02-15T08:22:09;11.60;96.80
13322;DHT22;6730;46.248;6.930;2024-02-15T08:24:35;11.80;98.40
13322;DHT22;6730;46.248;6.930;2024-02-15T08:27:01;12.30;97.40
13322;DHT22;6730;46.248;6.930;2024-02-15T08:29:30;12.90;95.50
13322;DHT22;6730;46.248;6.930;2024-02-15T08:31:55;13.20;95.30
13322;DHT22;6730;46.248;6.930;2024-02-15T08:34:21;13.70;95.20
13322;DHT22;6730;46.248;6.930;2024-02-15T08:36:47;13.90;95.20
13322;DHT22;6730;46.248;6.930;2024-02-15T08:39:13;13.90;95.70
13322;DHT22;6730;46.248;6.930;2024-02-15T08:41:41;14.30;95.40
13322;DHT22;6730;46.248;6.930;2024-02-15T08:44:07;14.40;95.60
13322;DHT22;6730;46.248;6.930;2024-02-15T08:46:37;14.30;94.80
13322;DHT22;6730;46.248;6.930;2024-02-15T08:49:03;14.40;94.80
13322;DHT22;6730;46.248;6.930;2024-02-15T08:51:29;14.40;94.10
13322;DHT22;6730;46.248;6.930;2024-02-15T08:53:58;14.30;94.10
13322;DHT22;6730;46.248;6.930;2024-02-15T08:56:25;15.00;94.90
13322;DHT22;6730;46.248;6.930;2024-02-15T08:58:51;15.50;95.30
13322;DHT22;6730;46.248;6.930;2024-02-15T09:01:16;16.10;94.80
13322;DHT22;6730;46.248;6.930;2024-02-15T09:03:42;16.00;94.00
13322;DHT22;6730;46.248;6.930;2024-02-15T09:06:08;16.10;94.70
13322;DHT22;6730;46.248;6.930;2024-02-15T09:08:34;15.90;95.70
13322;DHT22;6730;46.248;6.930;2024-02-15T09:10:59;15.40;93.40
13322;DHT22;6730;46.248;6.930;2024-02-15T09:13:25;14.00;94.50
13322;DHT22;6730;46.248;6.930;2024-02-15T09:15:51;13.40;95.40
13322;DHT22;6730;46.248;6.930;2024-02-15T09:18:16;13.30;95.60
13322;DHT22;6730;46.248;6.930;2024-02-15T09:20:48;14.30;96.50
13322;DHT22;6730;46.248;6.930;2024-02-15T09:23:14;15.00;94.80
13322;DHT22;6730;46.248;6.930;2024-02-15T09:25:41;15.10;94.80
13322;DHT22;6730;46.248;6.930;2024-02-15T09:28:10;15.30;94.00
13322;DHT22;6730;46.248;6.930;2024-02-15T09:30:35;15.70;94.40
13322;DHT22;6730;46.248;6.930;2024-02-15T09:33:02;15.60;93.10
13322;DHT22;6730;46.248;6.930;2024-02-15T09:35:31;14.90;93.40
13322;DHT22;6730;46.248;6.930;2024-02-15T09:37:57;14.10;95.50
13322;DHT22;6730;46.248;6.930;2024-02-15T09:40:23;14.30;95.00
13322;DHT22;6730;46.248;6.930;2024-02-15T09:42:54;13.80;95.10
13322;DHT22;6730;46.248;6.930;2024-02-15T09:45:20;13.70;94.50
13322;DHT22;6730;46.248;6.930;2024-02-15T09:47:47;13.40;95.70
13322;DHT22;6730;46.248;6.930;2024-02-15T09:50:16;13.40;96.40
13322;DHT22;6730;46.248;6.930;2024-02-15T09:52:52;13.70;94.30
13322;DHT22;6730;46.248;6.930;2024-02-15T09:55:22;14.20;94.40
13322;DHT22;6730;46.248;6.930;2024-02-15T09:57:50;13.60;95.20
13322;DHT22;6730;46.248;6.930;2024-02-15T10:00:16;13.30;96.50
13322;DHT22;6730;46.248;6.930;2024-02-15T10:02:47;13.30;96.30
13322;DHT22;6730;46.248;6.930;2024-02-15T10:05:13;13.50;94.90
13322;DHT22;6730;46.248;6.930;2024-02-15T10:07:40;13.60;94.30
13322;DHT22;6730;46.248;6.930;2024-02-15T10:10:22;13.50;94.20
13322;DHT22;6730;46.248;6.930;2024-02-15T10:12:54;13.40;94.50
13322;DHT22;6730;46.248;6.930;2024-02-15T10:15:39;13.50;95.30
13322;DHT22;6730;46.248;6.930;2024-02-15T10:18:10;13.70;95.00
13322;DHT22;6730;46.248;6.930;2024-02-15T10:20:40;13.70;94.10
13322;DHT22;6730;46.248;6.930;2024-02-15T10:23:15;14.00;93.30
13322;DHT22;6730;46.248;6.930;2024-02-15T10:25:44;14.40;95.60
13322;DHT22;6730;46.248;6.930;2024-02-15T10:28:20;14.80;96.30
13322;DHT22;6730;46.248;6.930;2024-02-15T10:30:45;14.70;96.50
13322;DHT22;6730;46.248;6.930;2024-02-15T10:33:26;15.10;95.80
13322;DHT22;6730;46.248;6.930;2024-02-15T10:36:05;15.10;95.60
13322;DHT22;6730;46.248;6.930;2024-02-15T10:38:32;15.20;94.80
13322;DHT22;6730;46.248;6.930;2024-02-15T10:41:03;14.90;96.10
13322;DHT22;6730;46.248;6.930;2024-02-15T10:43:36;15.00;95.60
13322;DHT22;6730;46.248;6.930;2024-02-15T10:46:04;15.40;95.00
13322;DHT22;6730;46.248;6.930;2024-02-15T10:48:33;15.20;94.20
13322;DHT22;6730;46.248;6.930;2024-02-15T10:50:59;15.00;95.40
13322;DHT22;6730;46.248;6.930;2024-02-15T10:53:28;15.20;95.50
13322;DHT22;6730;46.248;6.930;2024-02-15T10:56:30;15.30;95.60
13322;DHT22;6730;46.248;6.930;2024-02-15T10:59:19;14.50;95.70
13322;DHT22;6730;46.248;6.930;2024-02-15T11:01:57;14.20;97.10
13322;DHT22;6730;46.248;6.930;2024-02-15T11:04:25;13.90;96.30
13322;DHT22;6730;46.248;6.930;2024-02-15T11:06:58;13.00;97.10
13322;DHT22;6730;46.248;6.930;2024-02-15T11:09:24;13.20;96.90
13322;DHT22;6730;46.248;6.930;2024-02-15T11:11:54;13.00;97.20
13322;DHT22;6730;46.248;6.930;2024-02-15T11:16:55;13.80;97.80
13322;DHT22;6730;46.248;6.930;2024-02-15T11:19:43;14.60;97.00
13322;DHT22;6730;46.248;6.930;2024-02-15T11:22:15;15.10;95.90
13322;DHT22;6730;46.248;6.930;2024-02-15T11:24:52;15.20;95.00
13322;DHT22;6730;46.248;6.930;2024-02-15T11:27:28;14.80;95.40
13322;DHT22;6730;46.248;6.930;2024-02-15T11:29:56;14.80;96.30
13322;DHT22;6730;46.248;6.930;2024-02-15T11:32:44;14.30;95.60
13322;DHT22;6730;46.248;6.930;2024-02-15T11:35:17;13.90;96.70
13322;DHT22;6730;46.248;6.930;2024-02-15T11:40:17;12.80;97.90
13322;DHT22;6730;46.248;6.930;2024-02-15T11:42:44;12.40;99.70
13322;DHT22;6730;46.248;6.930;2024-02-15T11:45:11;12.30;99.70
13322;DHT22;6730;46.248;6.930;2024-02-15T11:47:39;12.50;99.90
13322;DHT22;6730;46.248;6.930;2024-02-15T11:50:10;12.60;99.90
13322;DHT22;6730;46.248;6.930;2024-02-15T11:52:47;12.20;99.90
13322;DHT22;6730;46.248;6.930;2024-02-15T11:55:18;11.80;99.90
13322;DHT22;6730;46.248;6.930;2024-02-15T11:57:54;11.90;99.90
13322;DHT22;6730;46.248;6.930;2024-02-15T12:00:26;11.80;99.90
13322;DHT22;6730;46.248;6.930;2024-02-15T12:03:14;11.70;99.90
13322;DHT22;6730;46.248;6.930;2024-02-15T12:05:59;11.90;99.90
13322;DHT22;6730;46.248;6.930;2024-02-15T12:08:47;12.20;99.90
13322;DHT22;6730;46.248;6.930;2024-02-15T12:11:31;12.00;99.90
13322;DHT22;6730;46.248;6.930;2024-02-15T12:14:16;12.20;99.90
13322;DHT22;6730;46.248;6.930;2024-02-15T12:17:10;12.70;99.90
13322;DHT22;6730;46.248;6.930;2024-02-15T12:19:56;12.90;99.90
13322;DHT22;6730;46.248;6.930;2024-02-15T12:22:32;12.70;99.90
13322;DHT22;6730;46.248;6.930;2024-02-15T12:25:00;12.80;99.90
13322;DHT22;6730;46.248;6.930;2024-02-15T12:27:26;12.80;99.90
13322;DHT22;6730;46.248;6.930;2024-02-15T12:29:59;12.30;99.90
13322;DHT22;6730;46.248;6.930;2024-02-15T12:32:28;12.20;99.90
13322;DHT22;6730;46.248;6.930;2024-02-15T12:35:10;12.40;99.90
13322;DHT22;6730;46.248;6.930;2024-02-15T12:37:41;12.50;99.90
13322;DHT22;6730;46.248;6.930;2024-02-15T12:40:15;12.90;99.90
13322;DHT22;6730;46.248;6.930;2024-02-15T12:42:43;13.20;99.90
13322;DHT22;6730;46.248;6.930;2024-02-15T12:45:22;13.40;99.90
13322;DHT22;6730;46.248;6.930;2024-02-15T12:47:51;13.10;99.90
13322;DHT22;6730;46.248;6.930;2024-02-15T12:50:19;12.90;99.90
13322;DHT22;6730;46.248;6.930;2024-02-15T12:52:47;13.10;99.90
13322;DHT22;6730;46.248;6.930;2024-02-15T12:55:18;13.30;99.90
13322;DHT22;6730;46.248;6.930;2024-02-15T12:57:49;13.40;99.90
13322;DHT22;6730;46.248;6.930;2024-02-15T13:00:22;13.20;99.90
13322;DHT22;6730;46.248;6.930;2024-02-15T13:02:53;13.00;99.90
13322;DHT22;6730;46.248;6.930;2024-02-15T13:05:21;13.10;99.90
13322;DHT22;6730;46.248;6.930;2024-02-15T13:07:50;13.00;99.90
13322;DHT22;6730;46.248;6.930;2024-02-15T13:10:17;13.00;99.90
13322;DHT22;6730;46.248;6.930;2024-02-15T13:12:46;13.00;99.90
13322;DHT22;6730;46.248;6.930;2024-02-15T13:15:15;12.80;99.90
13322;DHT22;6730;46.248;6.930;2024-02-15T13:17:46;12.30;99.90
13322;DHT22;6730;46.248;6.930;2024-02-15T13:20:14;12.30;99.90
13322;DHT22;6730;46.248;6.930;2024-02-15T13:22:43;12.20;99.90
13322;DHT22;6730;46.248;6.930;2024-02-15T13:25:10;12.00;99.90
13322;DHT22;6730;46.248;6.930;2024-02-15T13:27:36;11.90;99.90
13322;DHT22;6730;46.248;6.930;2024-02-15T13:30:04;11.90;99.90
13322;DHT22;6730;46.248;6.930;2024-02-15T13:32:37;11.70;99.90
13322;DHT22;6730;46.248;6.930;2024-02-15T13:35:05;11.80;99.90
13322;DHT22;6730;46.248;6.930;2024-02-15T13:37:42;11.90;99.90
13322;DHT22;6730;46.248;6.930;2024-02-15T13:40:11;12.40;99.90
13322;DHT22;6730;46.248;6.930;2024-02-15T13:42:47;12.90;99.90
13322;DHT22;6730;46.248;6.930;2024-02-15T13:45:20;12.60;99.90
13322;DHT22;6730;46.248;6.930;2024-02-15T13:47:49;12.20;99.90
13322;DHT22;6730;46.248;6.930;2024-02-15T13:50:19;11.80;99.90
13322;DHT22;6730;46.248;6.930;2024-02-15T13:52:45;11.70;99.90
13322;DHT22;6730;46.248;6.930;2024-02-15T13:55:12;11.50;99.90
13322;DHT22;6730;46.248;6.930;2024-02-15T13:57:39;11.70;99.90
13322;DHT22;6730;46.248;6.930;2024-02-15T14:00:05;11.80;99.90
13322;DHT22;6730;46.248;6.930;2024-02-15T14:02:31;11.50;99.90
13322;DHT22;6730;46.248;6.930;2024-02-15T14:04:57;11.50;99.90
13322;DHT22;6730;46.248;6.930;2024-02-15T14:07:23;11.40;99.90
13322;DHT22;6730;46.248;6.930;2024-02-15T14:09:48;11.40;99.90
13322;DHT22;6730;46.248;6.930;2024-02-15T14:12:14;11.30;99.90
13322;DHT22;6730;46.248;6.930;2024-02-15T14:14:41;11.10;99.90
13322;DHT22;6730;46.248;6.930;2024-02-15T14:17:08;11.40;99.90
13322;DHT22;6730;46.248;6.930;2024-02-15T14:19:34;11.30;99.90
13322;DHT22;6730;46.248;6.930;2024-02-15T14:22:00;11.20;99.90
13322;DHT22;6730;46.248;6.930;2024-02-15T14:24:27;10.80;99.90
13322;DHT22;6730;46.248;6.930;2024-02-15T14:26:52;10.70;99.90
13322;DHT22;6730;46.248;6.930;2024-02-15T14:29:18;10.70;99.90
13322;DHT22;6730;46.248;6.930;2024-02-15T14:31:53;10.50;99.90
13322;DHT22;6730;46.248;6.930;2024-02-15T14:34:37;10.50;99.90
13322;DHT22;6730;46.248;6.930;2024-02-15T14:37:02;10.70;99.90
13322;DHT22;6730;46.248;6.930;2024-02-15T14:39:31;10.80;99.90
13322;DHT22;6730;46.248;6.930;2024-02-15T14:41:57;10.70;99.90
13322;DHT22;6730;46.248;6.930;2024-02-15T14:44:23;10.70;99.90
13322;DHT22;6730;46.248;6.930;2024-02-15T14:46:49;10.60;99.90
13322;DHT22;6730;46.248;6.930;2024-02-15T14:49:14;10.50;99.90
13322;DHT22;6730;46.248;6.930;2024-02-15T14:51:42;10.60;99.90
13322;DHT22;6730;46.248;6.930;2024-02-15T14:54:08;10.70;99.90
13322;DHT22;6730;46.248;6.930;2024-02-15T14:56:34;10.80;99.90
13322;DHT22;6730;46.248;6.930;2024-02-15T14:58:59;10.80;99.90
13322;DHT22;6730;46.248;6.930;2024-02-15T15:01:26;11.00;99.90
13322;DHT22;6730;46.248;6.930;2024-02-15T15:03:53;11.40;99.90
13322;DHT22;6730;46.248;6.930;2024-02-15T15:06:21;11.60;99.90
13322;DHT22;6730;46.248;6.930;2024-02-15T15:09:05;11.40;99.90
13322;DHT22;6730;46.248;6.930;2024-02-15T15:11:49;11.00;99.90
13322;DHT22;6730;46.248;6.930;2024-02-15T15:14:33;10.90;99.90
13322;DHT22;6730;46.248;6.930;2024-02-15T15:16:59;11.10;99.90
13322;DHT22;6730;46.248;6.930;2024-02-15T15:19:25;11.30;99.90
13322;DHT22;6730;46.248;6.930;2024-02-15T15:21:52;11.90;99.90
13322;DHT22;6730;46.248;6.930;2024-02-15T15:24:19;12.50;99.90
13322;DHT22;6730;46.248;6.930;2024-02-15T15:26:44;13.00;99.90
13322;DHT22;6730;46.248;6.930;2024-02-15T15:29:10;13.40;99.90
13322;DHT22;6730;46.248;6.930;2024-02-15T15:31:36;13.40;99.90
13322;DHT22;6730;46.248;6.930;2024-02-15T15:34:02;13.10;99.90
13322;DHT22;6730;46.248;6.930;2024-02-15T15:36:27;13.00;99.90
13322;DHT22;6730;46.248;6.930;2024-02-15T15:38:53;12.80;99.90
13322;DHT22;6730;46.248;6.930;2024-02-15T15:41:19;12.70;99.90
13322;DHT22;6730;46.248;6.930;2024-02-15T15:43:47;12.30;99.90
13322;DHT22;6730;46.248;6.930;2024-02-15T15:46:14;11.40;99.90
13322;DHT22;6730;46.248;6.930;2024-02-15T15:48:40;11.40;99.90
13322;DHT22;6730;46.248;6.930;2024-02-15T15:51:05;11.80;99.90
13322;DHT22;6730;46.248;6.930;2024-02-15T15:53:34;12.30;99.90
13322;DHT22;6730;46.248;6.930;2024-02-15T15:56:00;12.50;99.90
13322;DHT22;6730;46.248;6.930;2024-02-15T15:58:26;12.50;99.90
13322;DHT22;6730;46.248;6.930;2024-02-15T16:00:51;12.40;99.90
13322;DHT22;6730;46.248;6.930;2024-02-15T16:03:17;12.10;99.90
13322;DHT22;6730;46.248;6.930;2024-02-15T16:05:51;11.50;99.90
13322;DHT22;6730;46.248;6.930;2024-02-15T16:08:17;10.70;99.90